sensor_id;sensor_type;location;lat;lon;timestamp;pressure;altitude;pressure_sealevel;temperature;humidity
61035;BME280;46916;40.564;-7.958;2023-04-07T00:01:36;97187.81;;;17.60;29.45
61035;BME280;46916;40.564;-7.958;2023-04-07T00:03:37;97186.59;;;17.48;29.78
61035;BME280;46916;40.564;-7.958;2023-04-07T00:05:40;97184.31;;;17.45;29.74
61035;BME280;46916;40.564;-7.958;2023-04-07T00:07:40;97184.66;;;17.42;30.04
61035;BME280;46916;40.564;-7.958;2023-04-07T00:09:41;97180.91;;;17.36;30.04
61035;BME280;46916;40.564;-7.958;2023-04-07T00:11:42;97180.91;;;17.36;30.35
61035;BME280;46916;40.564;-7.958;2023-04-07T00:13:42;97172.56;;;17.24;30.59
61035;BME280;46916;40.564;-7.958;2023-04-07T00:15:43;97178.88;;;17.23;30.58
61035;BME280;46916;40.564;-7.958;2023-04-07T00:17:44;97174.13;;;17.19;30.48
61035;BME280;46916;40.564;-7.958;2023-04-07T00:19:44;97182.88;;;17.19;30.42
61035;BME280;46916;40.564;-7.958;2023-04-07T00:21:45;97178.22;;;17.21;30.54
61035;BME280;46916;40.564;-7.958;2023-04-07T00:23:46;97174.94;;;17.19;30.35
61035;BME280;46916;40.564;-7.958;2023-04-07T00:25:47;97177.19;;;17.22;30.46
61035;BME280;46916;40.564;-7.958;2023-04-07T00:27:48;97174.00;;;17.12;30.48
61035;BME280;46916;40.564;-7.958;2023-04-07T00:29:49;97171.06;;;17.07;30.40
61035;BME280;46916;40.564;-7.958;2023-04-07T00:31:50;97178.81;;;17.08;30.59
61035;BME280;46916;40.564;-7.958;2023-04-07T00:33:51;97175.16;;;17.09;30.58
61035;BME280;46916;40.564;-7.958;2023-04-07T00:35:52;97165.09;;;17.05;30.67
61035;BME280;46916;40.564;-7.958;2023-04-07T00:37:53;97180.63;;;17.08;30.47
61035;BME280;46916;40.564;-7.958;2023-04-07T00:39:55;97179.16;;;17.05;30.21
61035;BME280;46916;40.564;-7.958;2023-04-07T00:41:57;97168.09;;;17.02;30.22
61035;BME280;46916;40.564;-7.958;2023-04-07T00:43:58;97173.03;;;17.05;30.40
61035;BME280;46916;40.564;-7.958;2023-04-07T00:45:58;97168.41;;;17.07;30.14
61035;BME280;46916;40.564;-7.958;2023-04-07T00:47:59;97175.16;;;17.09;30.43
61035;BME280;46916;40.564;-7.958;2023-04-07T00:50:03;97183.28;;;17.08;30.23
61035;BME280;46916;40.564;-7.958;2023-04-07T00:52:04;97171.06;;;17.07;30.28
61035;BME280;46916;40.564;-7.958;2023-04-07T00:54:06;97178.81;;;17.08;30.20
61035;BME280;46916;40.564;-7.958;2023-04-07T00:56:07;97166.94;;;17.04;30.33
61035;BME280;46916;40.564;-7.958;2023-04-07T00:58:08;97155.06;;;17.00;30.13
61035;BME280;46916;40.564;-7.958;2023-04-07T01:00:09;97149.47;;;16.95;30.23
61035;BME280;46916;40.564;-7.958;2023-04-07T01:02:16;97161.34;;;16.99;29.93
61035;BME280;46916;40.564;-7.958;2023-04-07T01:04:31;97157.22;;;16.97;29.78
61035;BME280;46916;40.564;-7.958;2023-04-07T01:06:37;97157.13;;;16.90;29.25
61035;BME280;46916;40.564;-7.958;2023-04-07T01:08:53;97166.03;;;16.89;29.62
61035;BME280;46916;40.564;-7.958;2023-04-07T01:11:07;97150.22;;;16.81;29.69
61035;BME280;46916;40.564;-7.958;2023-04-07T01:13:22;97150.41;;;16.79;29.65
61035;BME280;46916;40.564;-7.958;2023-04-07T01:15:32;97151.03;;;16.81;29.72
61035;BME280;46916;40.564;-7.958;2023-04-07T01:17:36;97144.13;;;16.80;29.83
61035;BME280;46916;40.564;-7.958;2023-04-07T01:19:43;97151.72;;;16.83;30.03
61035;BME280;46916;40.564;-7.958;2023-04-07T01:21:48;97152.19;;;16.87;30.03
61035;BME280;46916;40.564;-7.958;2023-04-07T01:26:25;97152.00;;;16.89;29.95
61035;BME280;46916;40.564;-7.958;2023-04-07T01:30:43;97145.88;;;16.88;30.08
61035;BME280;46916;40.564;-7.958;2023-04-07T01:32:49;97142.72;;;16.93;30.00
61035;BME280;46916;40.564;-7.958;2023-04-07T01:34:51;97144.53;;;16.92;29.76
61035;BME280;46916;40.564;-7.958;2023-04-07T01:36:53;97134.13;;;16.91;29.79
61035;BME280;46916;40.564;-7.958;2023-04-07T01:38:57;97135.59;;;16.93;30.01
61035;BME280;46916;40.564;-7.958;2023-04-07T01:40:59;97138.91;;;16.95;29.78
61035;BME280;46916;40.564;-7.958;2023-04-07T01:43:01;97137.41;;;16.93;29.74
61035;BME280;46916;40.564;-7.958;2023-04-07T01:45:03;97132.47;;;16.90;29.84
61035;BME280;46916;40.564;-7.958;2023-04-07T01:47:05;97136.59;;;16.92;29.64
61035;BME280;46916;40.564;-7.958;2023-04-07T01:49:07;97132.59;;;16.96;29.63
61035;BME280;46916;40.564;-7.958;2023-04-07T01:51:09;97144.00;;;16.97;29.43
61035;BME280;46916;40.564;-7.958;2023-04-07T01:53:11;97136.25;;;16.95;29.48
61035;BME280;46916;40.564;-7.958;2023-04-07T01:55:13;97136.53;;;17.00;29.48
61035;BME280;46916;40.564;-7.958;2023-04-07T01:57:32;97133.88;;;17.00;29.08
61035;BME280;46916;40.564;-7.958;2023-04-07T01:59:38;97138.16;;;17.01;29.15
61035;BME280;46916;40.564;-7.958;2023-04-07T02:01:39;97128.31;;;16.95;29.26
61035;BME280;46916;40.564;-7.958;2023-04-07T02:04:01;97134.56;;;17.02;29.27
61035;BME280;46916;40.564;-7.958;2023-04-07T02:06:06;97134.56;;;17.02;28.92
61035;BME280;46916;40.564;-7.958;2023-04-07T02:08:08;97130.91;;;17.03;29.18
61035;BME280;46916;40.564;-7.958;2023-04-07T02:10:12;97132.41;;;16.98;28.99
61035;BME280;46916;40.564;-7.958;2023-04-07T02:12:15;97127.13;;;16.98;28.94
61035;BME280;46916;40.564;-7.958;2023-04-07T02:14:27;97134.25;;;16.97;28.89
61035;BME280;46916;40.564;-7.958;2023-04-07T02:16:41;97133.31;;;16.90;28.83
61035;BME280;46916;40.564;-7.958;2023-04-07T02:18:45;97127.91;;;16.83;28.82
61035;BME280;46916;40.564;-7.958;2023-04-07T02:20:47;97132.19;;;16.84;28.85
61035;BME280;46916;40.564;-7.958;2023-04-07T02:22:49;97129.88;;;16.81;29.09
61035;BME280;46916;40.564;-7.958;2023-04-07T02:24:51;97130.72;;;16.82;28.86
61035;BME280;46916;40.564;-7.958;2023-04-07T02:27:00;97132.72;;;16.80;29.05
61035;BME280;46916;40.564;-7.958;2023-04-07T02:29:04;97129.88;;;16.81;28.84
61035;BME280;46916;40.564;-7.958;2023-04-07T02:31:05;97128.25;;;16.80;28.92
61035;BME280;46916;40.564;-7.958;2023-04-07T02:33:06;97134.06;;;16.76;29.02
61035;BME280;46916;40.564;-7.958;2023-04-07T02:35:07;97135.22;;;16.73;28.92
61035;BME280;46916;40.564;-7.958;2023-04-07T02:37:08;97128.63;;;16.69;29.14
61035;BME280;46916;40.564;-7.958;2023-04-07T02:39:09;97125.50;;;16.74;29.31
61035;BME280;46916;40.564;-7.958;2023-04-07T02:41:10;97119.22;;;16.75;28.85
61035;BME280;46916;40.564;-7.958;2023-04-07T02:43:11;97134.56;;;16.71;29.20
61035;BME280;46916;40.564;-7.958;2023-04-07T02:45:11;97124.69;;;16.65;29.03
61035;BME280;46916;40.564;-7.958;2023-04-07T02:47:12;97119.75;;;16.62;28.95
61035;BME280;46916;40.564;-7.958;2023-04-07T02:49:13;97118.28;;;16.59;29.10
61035;BME280;46916;40.564;-7.958;2023-04-07T02:51:13;97126.88;;;16.62;29.21
61035;BME280;46916;40.564;-7.958;2023-04-07T02:53:14;97124.88;;;16.64;29.08
61035;BME280;46916;40.564;-7.958;2023-04-07T02:55:15;97121.94;;;16.58;28.94
61035;BME280;46916;40.564;-7.958;2023-04-07T02:57:18;97113.47;;;16.63;29.12
61035;BME280;46916;40.564;-7.958;2023-04-07T02:59:19;97114.94;;;16.66;28.88
61035;BME280;46916;40.564;-7.958;2023-04-07T03:01:20;97108.94;;;16.72;28.75
61035;BME280;46916;40.564;-7.958;2023-04-07T03:03:21;97100.84;;;16.73;28.81
61035;BME280;46916;40.564;-7.958;2023-04-07T03:05:48;97113.03;;;16.82;28.62
61035;BME280;46916;40.564;-7.958;2023-04-07T03:07:49;97097.53;;;16.79;28.54
61035;BME280;46916;40.564;-7.958;2023-04-07T03:09:50;97103.91;;;16.85;28.72
61035;BME280;46916;40.564;-7.958;2023-04-07T03:11:52;97099.97;;;16.81;28.83
61035;BME280;46916;40.564;-7.958;2023-04-07T03:13:53;97111.22;;;16.83;28.68
61035;BME280;46916;40.564;-7.958;2023-04-07T03:15:54;97108.38;;;16.84;28.50
61035;BME280;46916;40.564;-7.958;2023-04-07T03:17:55;97106.56;;;16.85;28.54
61035;BME280;46916;40.564;-7.958;2023-04-07T03:19:56;97103.56;;;16.88;28.50
61035;BME280;46916;40.564;-7.958;2023-04-07T03:21:57;97101.59;;;16.90;28.52
61035;BME280;46916;40.564;-7.958;2023-04-07T03:23:57;97103.22;;;16.91;28.45
61035;BME280;46916;40.564;-7.958;2023-04-07T03:25:58;97110.16;;;16.92;28.49
61035;BME280;46916;40.564;-7.958;2023-04-07T03:28:04;97104.84;;;16.92;28.24
61035;BME280;46916;40.564;-7.958;2023-04-07T03:30:08;97107.31;;;16.94;28.07
61035;BME280;46916;40.564;-7.958;2023-04-07T03:32:09;97100.72;;;16.90;28.38
61035;BME280;46916;40.564;-7.958;2023-04-07T03:34:10;97106.03;;;16.90;28.41
61035;BME280;46916;40.564;-7.958;2023-04-07T03:36:10;97105.94;;;16.83;28.54
61035;BME280;46916;40.564;-7.958;2023-04-07T03:38:12;97099.53;;;16.69;28.83
61035;BME280;46916;40.564;-7.958;2023-04-07T03:40:13;97112.75;;;16.69;29.24
61035;BME280;46916;40.564;-7.958;2023-04-07T03:42:14;97114.09;;;16.65;29.28
61035;BME280;46916;40.564;-7.958;2023-04-07T03:44:15;97105.25;;;16.58;30.15
61035;BME280;46916;40.564;-7.958;2023-04-07T03:46:18;97110.59;;;16.50;30.10
61035;BME280;46916;40.564;-7.958;2023-04-07T03:48:19;97107.00;;;16.43;30.58
61035;BME280;46916;40.564;-7.958;2023-04-07T03:50:31;97101.59;;;16.28;30.79
61035;BME280;46916;40.564;-7.958;2023-04-07T03:52:41;97101.34;;;16.15;30.92
61035;BME280;46916;40.564;-7.958;2023-04-07T03:54:53;97114.28;;;16.01;31.24
61035;BME280;46916;40.564;-7.958;2023-04-07T03:56:57;97115.66;;;15.89;31.54
61035;BME280;46916;40.564;-7.958;2023-04-07T03:58:58;97111.56;;;15.78;31.65
61035;BME280;46916;40.564;-7.958;2023-04-07T04:01:03;97100.38;;;15.60;31.68
61035;BME280;46916;40.564;-7.958;2023-04-07T04:03:05;97107.16;;;15.46;31.96
61035;BME280;46916;40.564;-7.958;2023-04-07T04:05:07;97111.31;;;15.41;32.10
61035;BME280;46916;40.564;-7.958;2023-04-07T04:07:08;97110.28;;;15.50;32.07
61035;BME280;46916;40.564;-7.958;2023-04-07T04:09:18;97111.78;;;15.52;32.06
61035;BME280;46916;40.564;-7.958;2023-04-07T04:11:22;97114.25;;;15.54;31.87
61035;BME280;46916;40.564;-7.958;2023-04-07T04:13:30;97102.38;;;15.50;31.94
61035;BME280;46916;40.564;-7.958;2023-04-07T04:15:36;97104.00;;;15.51;31.93
61035;BME280;46916;40.564;-7.958;2023-04-07T04:17:39;97106.19;;;15.55;31.70
61035;BME280;46916;40.564;-7.958;2023-04-07T04:19:41;97102.53;;;15.56;31.96
61035;BME280;46916;40.564;-7.958;2023-04-07T04:21:55;97107.66;;;15.50;32.02
61035;BME280;46916;40.564;-7.958;2023-04-07T04:23:56;97106.00;;;15.49;31.92
61035;BME280;46916;40.564;-7.958;2023-04-07T04:26:01;97104.69;;;15.53;31.77
61035;BME280;46916;40.564;-7.958;2023-04-07T04:28:05;97107.81;;;15.56;31.90
61035;BME280;46916;40.564;-7.958;2023-04-07T04:30:06;97101.34;;;15.59;31.76
61035;BME280;46916;40.564;-7.958;2023-04-07T04:32:12;97109.44;;;15.57;31.83
61035;BME280;46916;40.564;-7.958;2023-04-07T04:34:15;97105.31;;;15.55;31.77
61035;BME280;46916;40.564;-7.958;2023-04-07T04:36:18;97094.75;;;15.55;31.48
61035;BME280;46916;40.564;-7.958;2023-04-07T04:38:20;97101.22;;;15.52;31.74
61035;BME280;46916;40.564;-7.958;2023-04-07T04:40:27;97096.28;;;15.49;31.88
61035;BME280;46916;40.564;-7.958;2023-04-07T04:42:28;97097.28;;;15.40;31.84
61035;BME280;46916;40.564;-7.958;2023-04-07T04:44:31;97099.28;;;15.30;32.01
61035;BME280;46916;40.564;-7.958;2023-04-07T04:46:34;97099.47;;;15.20;32.17
61035;BME280;46916;40.564;-7.958;2023-04-07T04:48:35;97093.06;;;15.15;32.28
61035;BME280;46916;40.564;-7.958;2023-04-07T04:50:38;97095.50;;;15.16;32.25
61035;BME280;46916;40.564;-7.958;2023-04-07T04:52:43;97085.47;;;15.11;32.21
61035;BME280;46916;40.564;-7.958;2023-04-07T04:54:53;97091.56;;;15.12;32.35
61035;BME280;46916;40.564;-7.958;2023-04-07T04:56:55;97095.50;;;15.16;32.21
61035;BME280;46916;40.564;-7.958;2023-04-07T04:58:57;97101.59;;;15.17;32.25
61035;BME280;46916;40.564;-7.958;2023-04-07T05:01:24;97106.88;;;15.17;32.46
61035;BME280;46916;40.564;-7.958;2023-04-07T05:03:31;97112.16;;;15.17;32.41
61035;BME280;46916;40.564;-7.958;2023-04-07T05:05:36;97104.06;;;15.10;32.46
61035;BME280;46916;40.564;-7.958;2023-04-07T05:07:37;97106.56;;;15.03;32.43
61035;BME280;46916;40.564;-7.958;2023-04-07T05:09:41;97099.66;;;15.02;32.75
61035;BME280;46916;40.564;-7.958;2023-04-07T05:11:42;97110.53;;;15.07;32.63
61035;BME280;46916;40.564;-7.958;2023-04-07T05:13:43;97119.25;;;15.08;32.59
61035;BME280;46916;40.564;-7.958;2023-04-07T05:15:44;97107.22;;;15.05;32.86
61035;BME280;46916;40.564;-7.958;2023-04-07T05:17:46;97115.78;;;15.07;32.58
61035;BME280;46916;40.564;-7.958;2023-04-07T05:19:54;97119.06;;;15.09;32.52
61035;BME280;46916;40.564;-7.958;2023-04-07T05:22:07;97103.75;;;15.05;32.68
61035;BME280;46916;40.564;-7.958;2023-04-07T05:24:16;97097.34;;;14.99;32.92
61035;BME280;46916;40.564;-7.958;2023-04-07T05:26:19;97111.66;;;15.05;32.73
61035;BME280;46916;40.564;-7.958;2023-04-07T05:28:21;97102.28;;;14.94;32.85
61035;BME280;46916;40.564;-7.958;2023-04-07T05:30:24;97111.66;;;14.97;32.83
61035;BME280;46916;40.564;-7.958;2023-04-07T05:32:27;97103.94;;;14.79;32.22
61035;BME280;46916;40.564;-7.958;2023-04-07T05:34:28;97109.84;;;14.73;32.59
61035;BME280;46916;40.564;-7.958;2023-04-07T05:36:30;97103.09;;;14.62;32.68
61035;BME280;46916;40.564;-7.958;2023-04-07T05:38:31;97107.13;;;14.48;33.05
61035;BME280;46916;40.564;-7.958;2023-04-07T05:40:39;97117.56;;;14.50;33.44
61035;BME280;46916;40.564;-7.958;2023-04-07T05:42:43;97106.47;;;14.38;33.54
61035;BME280;46916;40.564;-7.958;2023-04-07T05:44:44;97113.56;;;14.46;33.30
61035;BME280;46916;40.564;-7.958;2023-04-07T05:46:45;97111.59;;;14.48;33.11
61035;BME280;46916;40.564;-7.958;2023-04-07T05:48:47;97113.88;;;14.43;33.48
61035;BME280;46916;40.564;-7.958;2023-04-07T05:50:49;97109.09;;;14.38;33.38
61035;BME280;46916;40.564;-7.958;2023-04-07T05:52:52;97108.41;;;14.28;33.11
61035;BME280;46916;40.564;-7.958;2023-04-07T05:54:59;97109.56;;;14.25;33.66
61035;BME280;46916;40.564;-7.958;2023-04-07T05:57:03;97113.66;;;14.20;33.67
61035;BME280;46916;40.564;-7.958;2023-04-07T05:59:06;97116.13;;;14.13;33.75
61035;BME280;46916;40.564;-7.958;2023-04-07T06:01:07;97119.25;;;14.08;34.03
61035;BME280;46916;40.564;-7.958;2023-04-07T06:03:08;97119.25;;;14.08;33.83
61035;BME280;46916;40.564;-7.958;2023-04-07T06:05:19;97113.31;;;14.15;33.58
61035;BME280;46916;40.564;-7.958;2023-04-07T06:07:23;97116.31;;;14.28;33.66
61035;BME280;46916;40.564;-7.958;2023-04-07T06:09:23;97109.59;;;14.33;33.60
61035;BME280;46916;40.564;-7.958;2023-04-07T06:11:25;97110.75;;;14.39;33.43
61035;BME280;46916;40.564;-7.958;2023-04-07T06:13:26;97121.66;;;14.52;33.41
61035;BME280;46916;40.564;-7.958;2023-04-07T06:15:27;97125.47;;;14.50;33.08
61035;BME280;46916;40.564;-7.958;2023-04-07T06:17:28;97117.84;;;14.47;33.13
61035;BME280;46916;40.564;-7.958;2023-04-07T06:19:28;97119.38;;;14.49;32.78
61035;BME280;46916;40.564;-7.958;2023-04-07T06:21:29;97122.34;;;14.54;32.67
61035;BME280;46916;40.564;-7.958;2023-04-07T06:23:30;97122.34;;;14.54;32.74
61035;BME280;46916;40.564;-7.958;2023-04-07T06:25:31;97131.25;;;14.61;32.29
61035;BME280;46916;40.564;-7.958;2023-04-07T06:27:34;97135.22;;;14.66;32.34
61035;BME280;46916;40.564;-7.958;2023-04-07T06:29:35;97128.44;;;14.63;32.35
61035;BME280;46916;40.564;-7.958;2023-04-07T06:31:38;97126.31;;;14.58;32.27
61035;BME280;46916;40.564;-7.958;2023-04-07T06:33:39;97122.13;;;14.48;32.22
61035;BME280;46916;40.564;-7.958;2023-04-07T06:35:40;97121.56;;;14.28;32.88
61035;BME280;46916;40.564;-7.958;2023-04-07T06:37:41;97134.25;;;14.32;33.23
61035;BME280;46916;40.564;-7.958;2023-04-07T06:39:42;97141.03;;;14.35;33.11
61035;BME280;46916;40.564;-7.958;2023-04-07T06:41:43;97141.38;;;14.40;33.38
61035;BME280;46916;40.564;-7.958;2023-04-07T06:43:45;97141.63;;;14.55;33.42
61035;BME280;46916;40.564;-7.958;2023-04-07T06:45:46;97140.81;;;14.63;33.23
61035;BME280;46916;40.564;-7.958;2023-04-07T06:47:47;97157.47;;;14.79;33.22
61035;BME280;46916;40.564;-7.958;2023-04-07T06:49:48;97142.47;;;14.88;32.96
61035;BME280;46916;40.564;-7.958;2023-04-07T06:51:48;97145.81;;;14.98;32.93
61035;BME280;46916;40.564;-7.958;2023-04-07T06:53:49;97147.94;;;14.95;33.06
61035;BME280;46916;40.564;-7.958;2023-04-07T06:55:50;97141.47;;;14.81;33.07
61035;BME280;46916;40.564;-7.958;2023-04-07T06:57:51;97147.44;;;14.83;33.32
61035;BME280;46916;40.564;-7.958;2023-04-07T06:59:51;97141.16;;;14.76;33.19
61035;BME280;46916;40.564;-7.958;2023-04-07T07:01:52;97156.66;;;14.79;33.14
61035;BME280;46916;40.564;-7.958;2023-04-07T07:03:53;97155.84;;;14.78;33.05
61035;BME280;46916;40.564;-7.958;2023-04-07T07:05:54;97155.31;;;14.75;33.35
61035;BME280;46916;40.564;-7.958;2023-04-07T07:07:58;97155.66;;;14.72;33.25
61035;BME280;46916;40.564;-7.958;2023-04-07T07:09:59;97156.63;;;14.71;33.16
61035;BME280;46916;40.564;-7.958;2023-04-07T07:11:59;97155.00;;;14.78;33.55
61035;BME280;46916;40.564;-7.958;2023-04-07T07:14:01;97153.53;;;14.83;33.20
61035;BME280;46916;40.564;-7.958;2023-04-07T07:16:02;97160.63;;;14.99;33.21
61035;BME280;46916;40.564;-7.958;2023-04-07T07:18:03;97150.41;;;15.04;32.92
61035;BME280;46916;40.564;-7.958;2023-04-07T07:20:04;97155.84;;;15.11;32.80
61035;BME280;46916;40.564;-7.958;2023-04-07T07:22:05;97164.59;;;15.20;32.56
61035;BME280;46916;40.564;-7.958;2023-04-07T07:24:06;97161.44;;;15.32;32.69
61035;BME280;46916;40.564;-7.958;2023-04-07T07:26:07;97161.13;;;15.44;32.15
61035;BME280;46916;40.564;-7.958;2023-04-07T07:28:07;97157.97;;;15.48;31.71
61035;BME280;46916;40.564;-7.958;2023-04-07T07:30:09;97162.94;;;15.51;31.61
61035;BME280;46916;40.564;-7.958;2023-04-07T07:32:10;97169.19;;;15.67;31.40
61035;BME280;46916;40.564;-7.958;2023-04-07T07:34:11;97171.28;;;15.79;31.34
61035;BME280;46916;40.564;-7.958;2023-04-07T07:36:12;97181.47;;;15.99;31.30
61035;BME280;46916;40.564;-7.958;2023-04-07T07:38:12;97179.47;;;16.17;30.90
61035;BME280;46916;40.564;-7.958;2023-04-07T07:40:13;97183.00;;;16.32;31.18
61035;BME280;46916;40.564;-7.958;2023-04-07T07:42:14;97174.69;;;16.44;30.24
61035;BME280;46916;40.564;-7.958;2023-04-07T07:44:15;97182.72;;;16.58;30.34
61035;BME280;46916;40.564;-7.958;2023-04-07T07:46:16;97181.03;;;16.74;30.16
61035;BME280;46916;40.564;-7.958;2023-04-07T07:48:16;97182.34;;;16.78;29.61
61035;BME280;46916;40.564;-7.958;2023-04-07T07:50:17;97180.03;;;16.75;29.21
61035;BME280;46916;40.564;-7.958;2023-04-07T07:52:18;97177.88;;;16.70;29.63
61035;BME280;46916;40.564;-7.958;2023-04-07T07:54:20;97166.34;;;16.63;29.74
61035;BME280;46916;40.564;-7.958;2023-04-07T07:56:20;97179.72;;;16.70;30.04
61035;BME280;46916;40.564;-7.958;2023-04-07T07:58:21;97177.81;;;16.87;29.55
61035;BME280;46916;40.564;-7.958;2023-04-07T08:00:22;97191.66;;;16.89;29.29
61035;BME280;46916;40.564;-7.958;2023-04-07T08:02:23;97179.84;;;16.76;29.50
61035;BME280;46916;40.564;-7.958;2023-04-07T08:04:30;97174.06;;;16.73;29.79
61035;BME280;46916;40.564;-7.958;2023-04-07T08:06:30;97182.16;;;16.79;29.49
61035;BME280;46916;40.564;-7.958;2023-04-07T08:08:31;97181.56;;;16.92;29.53
61035;BME280;46916;40.564;-7.958;2023-04-07T08:10:32;97173.91;;;16.97;29.11
61035;BME280;46916;40.564;-7.958;2023-04-07T08:12:32;97168.47;;;16.99;28.95
61035;BME280;46916;40.564;-7.958;2023-04-07T08:14:33;97185.16;;;16.99;28.85
61035;BME280;46916;40.564;-7.958;2023-04-07T08:16:34;97181.38;;;16.94;28.51
61035;BME280;46916;40.564;-7.958;2023-04-07T08:18:34;97179.53;;;17.02;28.42
61035;BME280;46916;40.564;-7.958;2023-04-07T08:20:35;97173.63;;;16.92;28.93
61035;BME280;46916;40.564;-7.958;2023-04-07T08:22:36;97171.94;;;16.99;28.72
61035;BME280;46916;40.564;-7.958;2023-04-07T08:24:37;97167.13;;;17.03;28.63
61035;BME280;46916;40.564;-7.958;2023-04-07T08:26:37;97160.94;;;16.88;28.73
61035;BME280;46916;40.564;-7.958;2023-04-07T08:28:38;97179.22;;;16.97;28.57
61035;BME280;46916;40.564;-7.958;2023-04-07T08:30:39;97178.47;;;17.12;28.18
61035;BME280;46916;40.564;-7.958;2023-04-07T08:32:44;97183.81;;;17.03;28.70
61035;BME280;46916;40.564;-7.958;2023-04-07T08:34:45;97174.22;;;17.02;29.28
61035;BME280;46916;40.564;-7.958;2023-04-07T08:36:46;97177.44;;;17.13;28.35
61035;BME280;46916;40.564;-7.958;2023-04-07T08:38:47;97179.69;;;17.24;28.18
61035;BME280;46916;40.564;-7.958;2023-04-07T08:40:54;97180.63;;;17.31;28.53
61035;BME280;46916;40.564;-7.958;2023-04-07T08:42:59;97163.19;;;17.37;29.13
61035;BME280;46916;40.564;-7.958;2023-04-07T08:45:05;97175.94;;;17.56;28.62
61035;BME280;46916;40.564;-7.958;2023-04-07T08:47:07;97176.59;;;17.73;28.32
61035;BME280;46916;40.564;-7.958;2023-04-07T08:49:10;97180.03;;;17.81;28.01
61035;BME280;46916;40.564;-7.958;2023-04-07T08:51:13;97165.31;;;17.79;28.22
61035;BME280;46916;40.564;-7.958;2023-04-07T08:53:18;97176.47;;;17.89;27.97
61035;BME280;46916;40.564;-7.958;2023-04-07T08:55:19;97170.34;;;17.89;28.18
61035;BME280;46916;40.564;-7.958;2023-04-07T08:57:21;97176.72;;;17.94;28.16
61035;BME280;46916;40.564;-7.958;2023-04-07T08:59:21;97186.78;;;18.14;27.78
61035;BME280;46916;40.564;-7.958;2023-04-07T09:01:26;97171.16;;;18.19;27.97
61035;BME280;46916;40.564;-7.958;2023-04-07T09:03:29;97178.56;;;18.23;27.88
61035;BME280;46916;40.564;-7.958;2023-04-07T09:05:32;97175.00;;;18.31;27.58
61035;BME280;46916;40.564;-7.958;2023-04-07T09:07:35;97174.38;;;18.29;27.98
61035;BME280;46916;40.564;-7.958;2023-04-07T09:09:36;97184.13;;;18.43;27.71
61035;BME280;46916;40.564;-7.958;2023-04-07T09:11:38;97177.44;;;18.47;28.16
61035;BME280;46916;40.564;-7.958;2023-04-07T09:13:40;97186.81;;;18.65;27.73
61035;BME280;46916;40.564;-7.958;2023-04-07T09:15:40;97171.28;;;18.62;27.36
61035;BME280;46916;40.564;-7.958;2023-04-07T09:17:41;97174.28;;;18.73;27.41
61035;BME280;46916;40.564;-7.958;2023-04-07T09:19:42;97173.75;;;18.78;27.37
61035;BME280;46916;40.564;-7.958;2023-04-07T09:21:51;97166.28;;;18.88;27.54
61035;BME280;46916;40.564;-7.958;2023-04-07T09:23:52;97178.25;;;18.99;27.56
61035;BME280;46916;40.564;-7.958;2023-04-07T09:25:52;97175.84;;;19.04;27.64
61035;BME280;46916;40.564;-7.958;2023-04-07T09:28:01;97183.09;;;19.17;27.78
61035;BME280;46916;40.564;-7.958;2023-04-07T09:30:13;97171.16;;;19.27;27.74
61035;BME280;46916;40.564;-7.958;2023-04-07T09:32:34;97173.50;;;19.37;27.75
61035;BME280;46916;40.564;-7.958;2023-04-07T09:34:38;97164.72;;;19.37;28.02
61035;BME280;46916;40.564;-7.958;2023-04-07T09:36:42;97169.22;;;19.43;27.91
61035;BME280;46916;40.564;-7.958;2023-04-07T09:38:43;97167.28;;;19.51;27.93
61035;BME280;46916;40.564;-7.958;2023-04-07T09:40:45;97158.91;;;19.54;28.23
61035;BME280;46916;40.564;-7.958;2023-04-07T09:42:46;97158.31;;;19.52;28.14
61035;BME280;46916;40.564;-7.958;2023-04-07T09:44:47;97168.22;;;19.65;27.95
61035;BME280;46916;40.564;-7.958;2023-04-07T09:49:00;97166.47;;;19.79;28.22
61035;BME280;46916;40.564;-7.958;2023-04-07T09:51:11;97164.47;;;19.81;28.46
61035;BME280;46916;40.564;-7.958;2023-04-07T09:53:12;97171.25;;;19.90;28.54
61035;BME280;46916;40.564;-7.958;2023-04-07T09:55:14;97167.19;;;19.94;28.93
61035;BME280;46916;40.564;-7.958;2023-04-07T09:57:15;97170.94;;;20.07;28.83
61035;BME280;46916;40.564;-7.958;2023-04-07T09:59:18;97166.09;;;20.17;28.54
61035;BME280;46916;40.564;-7.958;2023-04-07T10:01:20;97169.84;;;20.29;27.93
61035;BME280;46916;40.564;-7.958;2023-04-07T10:03:21;97162.28;;;20.33;27.49
61035;BME280;46916;40.564;-7.958;2023-04-07T10:05:22;97153.09;;;20.35;27.14
61035;BME280;46916;40.564;-7.958;2023-04-07T10:07:24;97171.78;;;20.48;27.47
61035;BME280;46916;40.564;-7.958;2023-04-07T10:09:29;97151.88;;;20.44;27.83
61035;BME280;46916;40.564;-7.958;2023-04-07T10:11:30;97173.66;;;20.55;28.12
61035;BME280;46916;40.564;-7.958;2023-04-07T10:13:34;97169.16;;;20.55;28.61
61035;BME280;46916;40.564;-7.958;2023-04-07T10:15:35;97170.41;;;20.59;28.16
61035;BME280;46916;40.564;-7.958;2023-04-07T10:17:37;97164.28;;;20.59;27.79
61035;BME280;46916;40.564;-7.958;2023-04-07T10:19:39;97162.03;;;20.62;28.31
61035;BME280;46916;40.564;-7.958;2023-04-07T10:21:42;97167.16;;;20.64;28.75
61035;BME280;46916;40.564;-7.958;2023-04-07T10:25:58;97154.06;;;20.69;29.20
61035;BME280;46916;40.564;-7.958;2023-04-07T10:28:05;97154.47;;;20.72;28.63
61035;BME280;46916;40.564;-7.958;2023-04-07T10:30:13;97156.13;;;20.80;28.06
61035;BME280;46916;40.564;-7.958;2023-04-07T10:32:15;97157.38;;;20.84;28.81
61035;BME280;46916;40.564;-7.958;2023-04-07T10:34:15;97160.06;;;20.91;28.79
61035;BME280;46916;40.564;-7.958;2023-04-07T10:36:18;97160.25;;;20.89;28.47
61035;BME280;46916;40.564;-7.958;2023-04-07T10:38:22;97156.97;;;20.87;27.80
61035;BME280;46916;40.564;-7.958;2023-04-07T10:49:08;97162.94;;;21.09;28.30
61035;BME280;46916;40.564;-7.958;2023-04-07T10:51:13;97153.31;;;21.08;28.15
61035;BME280;46916;40.564;-7.958;2023-04-07T10:53:14;97156.22;;;21.07;28.25
61035;BME280;46916;40.564;-7.958;2023-04-07T10:55:28;97152.13;;;21.11;27.98
61035;BME280;46916;40.564;-7.958;2023-04-07T10:57:29;97155.59;;;21.11;27.83
61035;BME280;46916;40.564;-7.958;2023-04-07T10:59:31;97152.94;;;21.11;27.91
61035;BME280;46916;40.564;-7.958;2023-04-07T11:01:32;97156.00;;;21.21;27.43